sensor_id;sensor_type;location;lat;lon;timestamp;pressure;altitude;pressure_sealevel;temperature;humidity
21300;BME280;10809;49.476;11.016;2023-02-18T00:01:36;98949.66;;;10.41;67.67
21300;BME280;10809;49.476;11.016;2023-02-18T00:04:08;98950.56;;;10.40;67.81
21300;BME280;10809;49.476;11.016;2023-02-18T00:06:38;98948.84;;;10.39;67.46
21300;BME280;10809;49.476;11.016;2023-02-18T00:09:09;98959.50;;;10.38;67.65
21300;BME280;10809;49.476;11.016;2023-02-18T00:11:43;98953.34;;;10.37;67.66
21300;BME280;10809;49.476;11.016;2023-02-18T00:14:15;98944.63;;;10.35;67.90
21300;BME280;10809;49.476;11.016;2023-02-18T00:16:46;98945.47;;;10.36;67.87
21300;BME280;10809;49.476;11.016;2023-02-18T00:19:18;98949.94;;;10.35;68.09
21300;BME280;10809;49.476;11.016;2023-02-18T00:21:48;98960.53;;;10.35;67.77
21300;BME280;10809;49.476;11.016;2023-02-18T00:24:19;98945.53;;;10.34;68.18
21300;BME280;10809;49.476;11.016;2023-02-18T00:26:50;98946.47;;;10.33;68.10
21300;BME280;10809;49.476;11.016;2023-02-18T00:29:21;98951.78;;;10.33;67.97
21300;BME280;10809;49.476;11.016;2023-02-18T00:31:51;98946.47;;;10.33;68.00
21300;BME280;10809;49.476;11.016;2023-02-18T00:34:22;98950.91;;;10.33;68.17
21300;BME280;10809;49.476;11.016;2023-02-18T00:36:52;98951.78;;;10.33;68.02
21300;BME280;10809;49.476;11.016;2023-02-18T00:39:22;98944.66;;;10.34;68.21
21300;BME280;10809;49.476;11.016;2023-02-18T00:41:53;98942.09;;;10.32;68.14
21300;BME280;10809;49.476;11.016;2023-02-18T00:44:23;98944.66;;;10.34;68.42
21300;BME280;10809;49.476;11.016;2023-02-18T00:46:57;98947.31;;;10.34;68.13
21300;BME280;10809;49.476;11.016;2023-02-18T00:49:30;98936.72;;;10.34;68.33
21300;BME280;10809;49.476;11.016;2023-02-18T00:52:01;98945.53;;;10.34;68.30
21300;BME280;10809;49.476;11.016;2023-02-18T00:54:31;98942.91;;;10.34;68.11
21300;BME280;10809;49.476;11.016;2023-02-18T00:57:02;98951.63;;;10.36;68.25
21300;BME280;10809;49.476;11.016;2023-02-18T00:59:34;98950.78;;;10.36;68.44
21300;BME280;10809;49.476;11.016;2023-02-18T01:02:07;98947.22;;;10.37;68.17
21300;BME280;10809;49.476;11.016;2023-02-18T01:04:37;98947.22;;;10.37;68.21
21300;BME280;10809;49.476;11.016;2023-02-18T01:07:07;98945.47;;;10.36;68.15
21300;BME280;10809;49.476;11.016;2023-02-18T01:09:39;98937.53;;;10.36;68.35
21300;BME280;10809;49.476;11.016;2023-02-18T01:12:10;98946.34;;;10.36;68.46
21300;BME280;10809;49.476;11.016;2023-02-18T01:14:41;98942.81;;;10.36;68.13
21300;BME280;10809;49.476;11.016;2023-02-18T01:17:11;98954.34;;;10.35;68.34
21300;BME280;10809;49.476;11.016;2023-02-18T01:19:46;98942.91;;;10.34;68.37
21300;BME280;10809;49.476;11.016;2023-02-18T01:22:17;98950.91;;;10.33;68.57
21300;BME280;10809;49.476;11.016;2023-02-18T01:24:53;98941.31;;;10.30;68.44
21300;BME280;10809;49.476;11.016;2023-02-18T01:27:29;98942.22;;;10.29;68.72
21300;BME280;10809;49.476;11.016;2023-02-18T01:30:03;98934.44;;;10.26;68.74
21300;BME280;10809;49.476;11.016;2023-02-18T01:32:34;98947.59;;;10.28;69.12
21300;BME280;10809;49.476;11.016;2023-02-18T01:35:05;98940.72;;;10.24;68.86
21300;BME280;10809;49.476;11.016;2023-02-18T01:37:36;98947.03;;;10.21;69.19
21300;BME280;10809;49.476;11.016;2023-02-18T01:40:08;98954.16;;;10.19;69.04
21300;BME280;10809;49.476;11.016;2023-02-18T01:42:39;98948.13;;;10.16;69.29
21300;BME280;10809;49.476;11.016;2023-02-18T01:48:37;98951.91;;;10.10;69.33
21300;BME280;10809;49.476;11.016;2023-02-18T01:51:21;98938.88;;;10.06;69.63
21300;BME280;10809;49.476;11.016;2023-02-18T01:54:09;98942.53;;;10.03;69.61
21300;BME280;10809;49.476;11.016;2023-02-18T01:56:54;98940.78;;;10.02;69.74
21300;BME280;10809;49.476;11.016;2023-02-18T02:02:26;98933.91;;;9.98;69.67
21300;BME280;10809;49.476;11.016;2023-02-18T02:04:57;98940.06;;;9.99;69.79
21300;BME280;10809;49.476;11.016;2023-02-18T02:07:28;98933.91;;;9.98;70.24
21300;BME280;10809;49.476;11.016;2023-02-18T02:09:59;98926.03;;;9.97;70.37
21300;BME280;10809;49.476;11.016;2023-02-18T02:22:09;98916.31;;;9.97;70.15
21300;BME280;10809;49.476;11.016;2023-02-18T02:31:10;98909.41;;;9.93;70.22
21300;BME280;10809;49.476;11.016;2023-02-18T02:46:05;98891.03;;;9.90;70.10
21300;BME280;10809;49.476;11.016;2023-02-18T02:48:45;98887.56;;;9.90;70.50
21300;BME280;10809;49.476;11.016;2023-02-18T02:51:23;98885.75;;;9.90;70.97
21300;BME280;10809;49.476;11.016;2023-02-18T02:54:11;98886.69;;;9.89;70.46
21300;BME280;10809;49.476;11.016;2023-02-18T02:56:43;98877.81;;;9.90;70.40
21300;BME280;10809;49.476;11.016;2023-02-18T02:59:24;98876.91;;;9.91;70.84
21300;BME280;10809;49.476;11.016;2023-02-18T03:05:19;98874.19;;;9.93;70.44
21300;BME280;10809;49.476;11.016;2023-02-18T03:08:04;98877.69;;;9.93;70.51
21300;BME280;10809;49.476;11.016;2023-02-18T03:11:02;98872.38;;;9.93;70.43
21300;BME280;10809;49.476;11.016;2023-02-18T03:13:57;98881.13;;;9.95;70.53
21300;BME280;10809;49.476;11.016;2023-02-18T03:16:48;98876.69;;;9.96;70.51
21300;BME280;10809;49.476;11.016;2023-02-18T03:22:10;98875.69;;;9.98;70.42
21300;BME280;10809;49.476;11.016;2023-02-18T03:24:49;98880.13;;;9.98;70.51
21300;BME280;10809;49.476;11.016;2023-02-18T03:27:24;98875.69;;;9.98;70.68
21300;BME280;10809;49.476;11.016;2023-02-18T03:32:33;98880.06;;;9.99;70.74
21300;BME280;10809;49.476;11.016;2023-02-18T03:35:08;98884.47;;;10.00;70.69
21300;BME280;10809;49.476;11.016;2023-02-18T03:40:33;98890.53;;;10.02;70.60
21300;BME280;10809;49.476;11.016;2023-02-18T03:43:08;98883.41;;;10.04;70.55
21300;BME280;10809;49.476;11.016;2023-02-18T03:45:42;98893.09;;;10.04;70.50
21300;BME280;10809;49.476;11.016;2023-02-18T03:48:15;98881.63;;;10.05;70.61
21300;BME280;10809;49.476;11.016;2023-02-18T03:50:59;98887.75;;;10.05;70.67
21300;BME280;10809;49.476;11.016;2023-02-18T03:53:30;98885.03;;;10.07;70.55
21300;BME280;10809;49.476;11.016;2023-02-18T03:56:00;98888.56;;;10.07;70.53
21300;BME280;10809;49.476;11.016;2023-02-18T03:58:30;98884.19;;;10.06;70.57
21300;BME280;10809;49.476;11.016;2023-02-18T04:01:07;98887.63;;;10.08;70.67
21300;BME280;10809;49.476;11.016;2023-02-18T04:03:37;98891.13;;;10.09;70.63
21300;BME280;10809;49.476;11.016;2023-02-18T04:09:29;98895.41;;;10.11;70.47
21300;BME280;10809;49.476;11.016;2023-02-18T04:11:59;98893.72;;;10.10;70.37
21300;BME280;10809;49.476;11.016;2023-02-18T04:14:30;98895.47;;;10.10;70.42
21300;BME280;10809;49.476;11.016;2023-02-18T04:17:19;98894.66;;;10.09;70.17
21300;BME280;10809;49.476;11.016;2023-02-18T04:23:00;98888.47;;;10.09;70.65
21300;BME280;10809;49.476;11.016;2023-02-18T04:25:40;98892.91;;;10.08;70.63
21300;BME280;10809;49.476;11.016;2023-02-18T04:28:12;98892.97;;;10.07;70.72
21300;BME280;10809;49.476;11.016;2023-02-18T04:30:46;98887.69;;;10.07;70.75
21300;BME280;10809;49.476;11.016;2023-02-18T04:33:17;98889.50;;;10.06;70.78
21300;BME280;10809;49.476;11.016;2023-02-18T04:35:47;98892.13;;;10.06;70.84
21300;BME280;10809;49.476;11.016;2023-02-18T04:38:18;98893.91;;;10.06;70.57
21300;BME280;10809;49.476;11.016;2023-02-18T04:40:48;98894.78;;;10.06;70.81
21300;BME280;10809;49.476;11.016;2023-02-18T04:43:18;98898.25;;;10.07;70.63
21300;BME280;10809;49.476;11.016;2023-02-18T04:45:52;98894.78;;;10.06;70.24
21300;BME280;10809;49.476;11.016;2023-02-18T04:48:22;98882.47;;;10.05;70.64
21300;BME280;10809;49.476;11.016;2023-02-18T04:50:53;98889.50;;;10.06;70.61
21300;BME280;10809;49.476;11.016;2023-02-18T04:53:23;98900.91;;;10.07;70.72
21300;BME280;10809;49.476;11.016;2023-02-18T04:55:59;98888.63;;;10.06;70.49
21300;BME280;10809;49.476;11.016;2023-02-18T04:58:30;98893.84;;;10.07;70.46
21300;BME280;10809;49.476;11.016;2023-02-18T05:01:09;98887.69;;;10.07;70.47
21300;BME280;10809;49.476;11.016;2023-02-18T05:03:40;98886.72;;;10.09;70.26
21300;BME280;10809;49.476;11.016;2023-02-18T05:06:10;98884.97;;;10.08;70.50
21300;BME280;10809;49.476;11.016;2023-02-18T05:08:41;98881.41;;;10.09;70.51
21300;BME280;10809;49.476;11.016;2023-02-18T05:11:14;98882.25;;;10.10;70.59
21300;BME280;10809;49.476;11.016;2023-02-18T05:13:44;98888.47;;;10.09;70.78
21300;BME280;10809;49.476;11.016;2023-02-18T05:16:18;98884.00;;;10.11;70.65
21300;BME280;10809;49.476;11.016;2023-02-18T05:18:48;98889.28;;;10.11;70.62
21300;BME280;10809;49.476;11.016;2023-02-18T05:21:18;98881.34;;;10.11;70.44
21300;BME280;10809;49.476;11.016;2023-02-18T05:23:49;98878.78;;;10.09;70.58
21300;BME280;10809;49.476;11.016;2023-02-18T05:26:22;98874.38;;;10.08;70.83
21300;BME280;10809;49.476;11.016;2023-02-18T05:28:52;98868.31;;;10.06;71.13
21300;BME280;10809;49.476;11.016;2023-02-18T05:31:23;98863.03;;;10.06;70.99
21300;BME280;10809;49.476;11.016;2023-02-18T05:33:53;98879.88;;;10.04;71.09
21300;BME280;10809;49.476;11.016;2023-02-18T05:36:30;98867.59;;;10.03;71.08
21300;BME280;10809;49.476;11.016;2023-02-18T05:39:00;98874.72;;;10.01;71.05
21300;BME280;10809;49.476;11.016;2023-02-18T05:41:33;98877.41;;;9.99;70.82
21300;BME280;10809;49.476;11.016;2023-02-18T05:44:04;98874.81;;;9.98;70.96
21300;BME280;10809;49.476;11.016;2023-02-18T05:46:57;98876.69;;;9.96;71.41
21300;BME280;10809;49.476;11.016;2023-02-18T05:49:29;98864.38;;;9.95;71.37
21300;BME280;10809;49.476;11.016;2023-02-18T05:52:12;98863.53;;;9.94;71.08
21300;BME280;10809;49.476;11.016;2023-02-18T05:54:42;98864.44;;;9.93;71.35
21300;BME280;10809;49.476;11.016;2023-02-18T05:57:13;98858.31;;;9.93;71.22
21300;BME280;10809;49.476;11.016;2023-02-18T05:59:44;98862.75;;;9.92;71.44
21300;BME280;10809;49.476;11.016;2023-02-18T06:02:14;98862.81;;;9.91;71.52
21300;BME280;10809;49.476;11.016;2023-02-18T06:04:57;98874.25;;;9.91;71.02
21300;BME280;10809;49.476;11.016;2023-02-18T06:07:31;98868.97;;;9.91;71.47
21300;BME280;10809;49.476;11.016;2023-02-18T06:10:08;98875.16;;;9.90;71.13
21300;BME280;10809;49.476;11.016;2023-02-18T06:12:39;98867.22;;;9.90;70.98
21300;BME280;10809;49.476;11.016;2023-02-18T06:15:09;98869.81;;;9.92;70.95
21300;BME280;10809;49.476;11.016;2023-02-18T06:17:49;98874.25;;;9.91;70.96
21300;BME280;10809;49.476;11.016;2023-02-18T06:20:19;98872.38;;;9.93;71.22
21300;BME280;10809;49.476;11.016;2023-02-18T06:22:49;98869.81;;;9.92;71.12
21300;BME280;10809;49.476;11.016;2023-02-18T06:25:20;98872.38;;;9.93;70.93
21300;BME280;10809;49.476;11.016;2023-02-18T06:27:50;98871.47;;;9.94;71.02
21300;BME280;10809;49.476;11.016;2023-02-18T06:30:20;98874.13;;;9.94;70.93
21300;BME280;10809;49.476;11.016;2023-02-18T06:32:51;98861.72;;;9.95;70.88
21300;BME280;10809;49.476;11.016;2023-02-18T06:35:24;98857.31;;;9.95;70.89
21300;BME280;10809;49.476;11.016;2023-02-18T06:37:55;98853.72;;;9.96;70.99
21300;BME280;10809;49.476;11.016;2023-02-18T06:40:25;98850.19;;;9.97;70.65
21300;BME280;10809;49.476;11.016;2023-02-18T06:42:55;98851.03;;;9.98;70.81
21300;BME280;10809;49.476;11.016;2023-02-18T06:45:32;98854.53;;;9.98;70.79
21300;BME280;10809;49.476;11.016;2023-02-18T06:48:02;98854.50;;;10.00;70.78
21300;BME280;10809;49.476;11.016;2023-02-18T06:50:43;98840.34;;;10.01;70.50
21300;BME280;10809;49.476;11.016;2023-02-18T06:53:14;98843.84;;;10.01;70.43
21300;BME280;10809;49.476;11.016;2023-02-18T06:55:49;98834.97;;;10.02;70.39
21300;BME280;10809;49.476;11.016;2023-02-18T06:58:19;98844.66;;;10.03;70.37
21300;BME280;10809;49.476;11.016;2023-02-18T07:00:50;98840.13;;;10.05;70.38
21300;BME280;10809;49.476;11.016;2023-02-18T07:03:20;98834.84;;;10.05;70.20
21300;BME280;10809;49.476;11.016;2023-02-18T07:05:51;98833.06;;;10.06;69.98
21300;BME280;10809;49.476;11.016;2023-02-18T07:08:21;98846.22;;;10.07;70.01
21300;BME280;10809;49.476;11.016;2023-02-18T07:10:51;98841.72;;;10.09;70.23
21300;BME280;10809;49.476;11.016;2023-02-18T07:13:22;98838.16;;;10.10;70.26
21300;BME280;10809;49.476;11.016;2023-02-18T07:15:52;98829.25;;;10.11;70.17
21300;BME280;10809;49.476;11.016;2023-02-18T07:18:22;98833.66;;;10.12;70.02
21300;BME280;10809;49.476;11.016;2023-02-18T07:20:53;98825.72;;;10.12;69.89
21300;BME280;10809;49.476;11.016;2023-02-18T07:23:23;98823.84;;;10.14;69.94
21300;BME280;10809;49.476;11.016;2023-02-18T07:26:05;98829.06;;;10.16;69.89
21300;BME280;10809;49.476;11.016;2023-02-18T07:28:37;98839.56;;;10.17;70.00
21300;BME280;10809;49.476;11.016;2023-02-18T07:31:07;98834.13;;;10.20;70.06
21300;BME280;10809;49.476;11.016;2023-02-18T07:33:38;98829.72;;;10.21;69.45
21300;BME280;10809;49.476;11.016;2023-02-18T07:36:11;98825.22;;;10.23;69.85
21300;BME280;10809;49.476;11.016;2023-02-18T07:38:44;98829.50;;;10.25;69.76
21300;BME280;10809;49.476;11.016;2023-02-18T07:41:17;98829.50;;;10.25;69.46
21300;BME280;10809;49.476;11.016;2023-02-18T07:43:48;98829.34;;;10.28;69.41
21300;BME280;10809;49.476;11.016;2023-02-18T07:46:19;98830.16;;;10.30;69.36
21300;BME280;10809;49.476;11.016;2023-02-18T07:48:50;98832.72;;;10.32;69.78
21300;BME280;10809;49.476;11.016;2023-02-18T07:51:20;98823.84;;;10.33;69.16
21300;BME280;10809;49.476;11.016;2023-02-18T07:53:53;98839.66;;;10.34;69.25
21300;BME280;10809;49.476;11.016;2023-02-18T07:56:24;98826.28;;;10.37;69.34
21300;BME280;10809;49.476;11.016;2023-02-18T07:58:54;98820.00;;;10.40;69.32
21300;BME280;10809;49.476;11.016;2023-02-18T08:01:24;98811.94;;;10.43;69.20
21300;BME280;10809;49.476;11.016;2023-02-18T08:03:55;98812.63;;;10.46;69.17
21300;BME280;10809;49.476;11.016;2023-02-18T08:06:43;98804.53;;;10.49;69.39
21300;BME280;10809;49.476;11.016;2023-02-18T08:09:16;98811.50;;;10.52;69.07
21300;BME280;10809;49.476;11.016;2023-02-18T08:11:48;98809.59;;;10.54;68.71
21300;BME280;10809;49.476;11.016;2023-02-18T08:14:19;98811.28;;;10.56;68.87
21300;BME280;10809;49.476;11.016;2023-02-18T08:16:49;98809.38;;;10.58;68.79
21300;BME280;10809;49.476;11.016;2023-02-18T08:19:19;98803.19;;;10.59;68.40
21300;BME280;10809;49.476;11.016;2023-02-18T08:21:50;98802.16;;;10.62;69.03
21300;BME280;10809;49.476;11.016;2023-02-18T08:24:23;98791.44;;;10.65;69.00
21300;BME280;10809;49.476;11.016;2023-02-18T08:26:53;98787.47;;;10.73;69.56
21300;BME280;10809;49.476;11.016;2023-02-18T08:29:42;98775.19;;;10.89;69.55
21300;BME280;10809;49.476;11.016;2023-02-18T08:32:22;98781.38;;;11.07;70.08
21300;BME280;10809;49.476;11.016;2023-02-18T08:34:55;98788.34;;;11.26;70.18
21300;BME280;10809;49.476;11.016;2023-02-18T08:37:26;98777.81;;;11.42;69.22
21300;BME280;10809;49.476;11.016;2023-02-18T08:39:56;98772.59;;;11.58;68.75
21300;BME280;10809;49.476;11.016;2023-02-18T08:42:26;98779.13;;;11.68;67.97
21300;BME280;10809;49.476;11.016;2023-02-18T08:44:57;98774.34;;;11.74;67.40
21300;BME280;10809;49.476;11.016;2023-02-18T08:47:27;98769.66;;;11.79;67.21
21300;BME280;10809;49.476;11.016;2023-02-18T08:49:57;98778.22;;;11.84;67.42
21300;BME280;10809;49.476;11.016;2023-02-18T08:52:28;98770.09;;;11.87;66.88
21300;BME280;10809;49.476;11.016;2023-02-18T08:54:58;98762.00;;;11.90;66.61
21300;BME280;10809;49.476;11.016;2023-02-18T08:57:28;98758.47;;;11.90;66.53
21300;BME280;10809;49.476;11.016;2023-02-18T08:59:59;98769.09;;;11.90;65.96
21300;BME280;10809;49.476;11.016;2023-02-18T09:02:29;98756.75;;;11.89;66.12
21300;BME280;10809;49.476;11.016;2023-02-18T09:04:59;98748.88;;;11.87;66.13
21300;BME280;10809;49.476;11.016;2023-02-18T09:07:30;98741.88;;;11.86;65.69
21300;BME280;10809;49.476;11.016;2023-02-18T09:10:00;98731.34;;;11.85;65.75
21300;BME280;10809;49.476;11.016;2023-02-18T09:12:31;98723.44;;;11.83;65.61
21300;BME280;10809;49.476;11.016;2023-02-18T09:15:02;98712.94;;;11.82;65.32
21300;BME280;10809;49.476;11.016;2023-02-18T09:17:33;98705.91;;;11.81;65.67
21300;BME280;10809;49.476;11.016;2023-02-18T09:20:04;98704.19;;;11.80;65.55
21300;BME280;10809;49.476;11.016;2023-02-18T09:22:35;98713.00;;;11.80;65.85
21300;BME280;10809;49.476;11.016;2023-02-18T09:25:06;98706.84;;;11.80;65.30
21300;BME280;10809;49.476;11.016;2023-02-18T09:27:36;98705.13;;;11.79;65.42
21300;BME280;10809;49.476;11.016;2023-02-18T09:30:07;98712.22;;;11.78;65.40
21300;BME280;10809;49.476;11.016;2023-02-18T09:32:37;98710.53;;;11.77;65.29
21300;BME280;10809;49.476;11.016;2023-02-18T09:35:08;98718.56;;;11.76;65.07
21300;BME280;10809;49.476;11.016;2023-02-18T09:37:38;98708.13;;;11.73;64.75
21300;BME280;10809;49.476;11.016;2023-02-18T09:40:24;98716.25;;;11.70;65.22
21300;BME280;10809;49.476;11.016;2023-02-18T09:42:56;98718.97;;;11.68;65.07
21300;BME280;10809;49.476;11.016;2023-02-18T09:45:27;98730.63;;;11.66;65.08
21300;BME280;10809;49.476;11.016;2023-02-18T09:48:01;98724.53;;;11.64;65.10
21300;BME280;10809;49.476;11.016;2023-02-18T09:50:39;98723.66;;;11.63;65.24
21300;BME280;10809;49.476;11.016;2023-02-18T09:53:10;98714.00;;;11.62;65.26
21300;BME280;10809;49.476;11.016;2023-02-18T09:55:42;98729.81;;;11.64;65.19
21300;BME280;10809;49.476;11.016;2023-02-18T09:58:18;98722.66;;;11.66;65.38
21300;BME280;10809;49.476;11.016;2023-02-18T10:01:04;98710.22;;;11.66;65.28
21300;BME280;10809;49.476;11.016;2023-02-18T10:03:36;98708.38;;;11.68;64.77
21300;BME280;10809;49.476;11.016;2023-02-18T10:06:10;98695.97;;;11.69;64.99
21300;BME280;10809;49.476;11.016;2023-02-18T10:08:47;98698.53;;;11.70;64.98
21300;BME280;10809;49.476;11.016;2023-02-18T10:11:40;98712.63;;;11.71;64.90
21300;BME280;10809;49.476;11.016;2023-02-18T10:14:24;98711.72;;;11.72;64.76
21300;BME280;10809;49.476;11.016;2023-02-18T10:16:56;98697.59;;;11.71;64.35
21300;BME280;10809;49.476;11.016;2023-02-18T10:19:33;98699.38;;;11.71;64.37
21300;BME280;10809;49.476;11.016;2023-02-18T10:22:10;98707.41;;;11.69;63.83
21300;BME280;10809;49.476;11.016;2023-02-18T10:25:01;98693.41;;;11.67;63.66
21300;BME280;10809;49.476;11.016;2023-02-18T10:27:35;98697.84;;;11.67;63.66
21300;BME280;10809;49.476;11.016;2023-02-18T10:30:22;98699.69;;;11.65;64.01
21300;BME280;10809;49.476;11.016;2023-02-18T10:33:26;98694.41;;;11.65;64.19
21300;BME280;10809;49.476;11.016;2023-02-18T10:42:17;98683.63;;;11.68;64.37
21300;BME280;10809;49.476;11.016;2023-02-18T10:45:06;98679.88;;;11.72;64.53
21300;BME280;10809;49.476;11.016;2023-02-18T10:50:48;98683.81;;;11.80;63.41
21300;BME280;10809;49.476;11.016;2023-02-18T10:53:39;98683.66;;;11.83;63.73
21300;BME280;10809;49.476;11.016;2023-02-18T10:59:24;98687.84;;;11.87;63.28
21300;BME280;10809;49.476;11.016;2023-02-18T11:01:57;98675.44;;;11.88;62.73
21300;BME280;10809;49.476;11.016;2023-02-18T11:04:39;98680.75;;;11.88;63.02
21300;BME280;10809;49.476;11.016;2023-02-18T11:07:21;98689.56;;;11.88;63.08
21300;BME280;10809;49.476;11.016;2023-02-18T11:09:54;98685.19;;;11.87;62.46
21300;BME280;10809;49.476;11.016;2023-02-18T11:12:33;98671.91;;;11.87;62.57
21300;BME280;10809;49.476;11.016;2023-02-18T11:17:47;98656.00;;;11.87;62.61
21300;BME280;10809;49.476;11.016;2023-02-18T11:20:25;98660.47;;;11.87;62.75
21300;BME280;10809;49.476;11.016;2023-02-18T11:22:57;98657.81;;;11.87;62.49
21300;BME280;10809;49.476;11.016;2023-02-18T11:25:31;98670.22;;;11.86;62.52
21300;BME280;10809;49.476;11.016;2023-02-18T11:30:48;98646.34;;;11.86;62.31
21300;BME280;10809;49.476;11.016;2023-02-18T11:33:35;98637.59;;;11.84;62.07
21300;BME280;10809;49.476;11.016;2023-02-18T11:36:21;98632.28;;;11.84;62.20
21300;BME280;10809;49.476;11.016;2023-02-18T11:38:58;98631.47;;;11.84;62.01
21300;BME280;10809;49.476;11.016;2023-02-18T11:41:55;98629.63;;;11.84;62.03
21300;BME280;10809;49.476;11.016;2023-02-18T11:44:41;98632.28;;;11.84;62.06
21300;BME280;10809;49.476;11.016;2023-02-18T11:47:22;98633.16;;;11.85;61.74
21300;BME280;10809;49.476;11.016;2023-02-18T11:52:41;98623.31;;;11.87;62.06
21300;BME280;10809;49.476;11.016;2023-02-18T11:55:23;98618.78;;;11.89;62.31
21300;BME280;10809;49.476;11.016;2023-02-18T11:58:03;98611.59;;;11.91;62.06
21300;BME280;10809;49.476;11.016;2023-02-18T12:00:42;98613.25;;;11.93;61.96
21300;BME280;10809;49.476;11.016;2023-02-18T12:03:30;98606.97;;;11.94;62.01
21300;BME280;10809;49.476;11.016;2023-02-18T12:06:13;98600.63;;;11.97;61.65
21300;BME280;10809;49.476;11.016;2023-02-18T12:08:51;98597.88;;;11.98;61.72
21300;BME280;10809;49.476;11.016;2023-02-18T12:12:10;98589.84;;;12.00;61.99
21300;BME280;10809;49.476;11.016;2023-02-18T12:14:43;98630.44;;;12.02;61.33
21300;BME280;10809;49.476;11.016;2023-02-18T12:26:31;98596.88;;;12.01;61.16
21300;BME280;10809;49.476;11.016;2023-02-18T12:29:12;98599.53;;;12.01;60.81
21300;BME280;10809;49.476;11.016;2023-02-18T12:40:39;98584.53;;;12.00;60.74
21300;BME280;10809;49.476;11.016;2023-02-18T12:43:45;98569.47;;;12.00;61.11
21300;BME280;10809;49.476;11.016;2023-02-18T12:46:50;98571.09;;;12.03;60.89
21300;BME280;10809;49.476;11.016;2023-02-18T13:04:00;98542.81;;;12.17;60.37
21300;BME280;10809;49.476;11.016;2023-02-18T13:16:12;98545.59;;;12.30;60.08
21300;BME280;10809;49.476;11.016;2023-02-18T13:18:48;98536.69;;;12.31;59.56
21300;BME280;10809;49.476;11.016;2023-02-18T13:21:24;98541.06;;;12.32;59.31
21300;BME280;10809;49.476;11.016;2023-02-18T13:23:58;98544.66;;;12.31;59.24
21300;BME280;10809;49.476;11.016;2023-02-18T13:26:33;98531.47;;;12.29;59.07
21300;BME280;10809;49.476;11.016;2023-02-18T13:32:23;98539.72;;;12.25;59.05
21300;BME280;10809;49.476;11.016;2023-02-18T13:35:14;98535.50;;;12.21;58.98
21300;BME280;10809;49.476;11.016;2023-02-18T13:38:25;98524.34;;;12.16;59.36
21300;BME280;10809;49.476;11.016;2023-02-18T13:41:09;98528.88;;;12.14;59.22
21300;BME280;10809;49.476;11.016;2023-02-18T13:43:40;98527.16;;;12.13;58.96
21300;BME280;10809;49.476;11.016;2023-02-18T13:46:49;98522.03;;;12.10;59.63
21300;BME280;10809;49.476;11.016;2023-02-18T13:52:18;98558.25;;;12.11;59.50
21300;BME280;10809;49.476;11.016;2023-02-18T13:54:49;98544.97;;;12.11;59.22
21300;BME280;10809;49.476;11.016;2023-02-18T13:57:25;98538.63;;;12.13;59.38
21300;BME280;10809;49.476;11.016;2023-02-18T14:00:02;98529.72;;;12.14;59.34
21300;BME280;10809;49.476;11.016;2023-02-18T14:02:35;98528.69;;;12.17;59.04
21300;BME280;10809;49.476;11.016;2023-02-18T14:05:21;98526.03;;;12.17;59.36
21300;BME280;10809;49.476;11.016;2023-02-18T14:08:05;98541.88;;;12.18;59.27
21300;BME280;10809;49.476;11.016;2023-02-18T14:10:39;98544.59;;;12.17;58.81
21300;BME280;10809;49.476;11.016;2023-02-18T14:13:37;98542.91;;;12.16;58.91
21300;BME280;10809;49.476;11.016;2023-02-18T14:16:10;98543.94;;;12.13;58.51
21300;BME280;10809;49.476;11.016;2023-02-18T14:21:19;98527.53;;;12.07;58.75
21300;BME280;10809;49.476;11.016;2023-02-18T14:23:57;98547.97;;;12.05;58.88
21300;BME280;10809;49.476;11.016;2023-02-18T14:26:32;98547.19;;;12.03;58.84
21300;BME280;10809;49.476;11.016;2023-02-18T14:29:16;98551.75;;;12.01;59.01
21300;BME280;10809;49.476;11.016;2023-02-18T14:31:55;98551.84;;;11.99;58.81
21300;BME280;10809;49.476;11.016;2023-02-18T14:34:43;98564.34;;;11.97;58.74
21300;BME280;10809;49.476;11.016;2023-02-18T14:37:43;98542.41;;;11.94;58.76
21300;BME280;10809;49.476;11.016;2023-02-18T14:49:09;98535.84;;;11.85;58.46
21300;BME280;10809;49.476;11.016;2023-02-18T14:51:46;98548.25;;;11.85;58.57
21300;BME280;10809;49.476;11.016;2023-02-18T14:54:25;98543.13;;;11.82;58.70
21300;BME280;10809;49.476;11.016;2023-02-18T14:57:05;98562.72;;;11.79;58.79
21300;BME280;10809;49.476;11.016;2023-02-18T14:59:43;98562.81;;;11.78;59.18
21300;BME280;10809;49.476;11.016;2023-02-18T15:02:23;98558.53;;;11.75;59.36
21300;BME280;10809;49.476;11.016;2023-02-18T15:07:54;98557.25;;;11.67;60.24
21300;BME280;10809;49.476;11.016;2023-02-18T15:10:40;98582.25;;;11.63;59.75
21300;BME280;10809;49.476;11.016;2023-02-18T15:13:19;98579.84;;;11.58;59.72
21300;BME280;10809;49.476;11.016;2023-02-18T15:15:57;98573.94;;;11.53;59.95
21300;BME280;10809;49.476;11.016;2023-02-18T15:18:41;98576.84;;;11.49;60.05
21300;BME280;10809;49.476;11.016;2023-02-18T15:21:35;98575.47;;;11.42;60.30
21300;BME280;10809;49.476;11.016;2023-02-18T15:26:47;98571.44;;;11.35;60.51
21300;BME280;10809;49.476;11.016;2023-02-18T15:29:24;98570.72;;;11.31;60.48
21300;BME280;10809;49.476;11.016;2023-02-18T15:31:58;98585.97;;;11.27;60.44
21300;BME280;10809;49.476;11.016;2023-02-18T15:34:37;98600.22;;;11.25;60.50
21300;BME280;10809;49.476;11.016;2023-02-18T15:37:11;98587.06;;;11.23;60.76
21300;BME280;10809;49.476;11.016;2023-02-18T15:39:45;98596.88;;;11.21;60.74
21300;BME280;10809;49.476;11.016;2023-02-18T15:42:25;98588.06;;;11.21;60.76
21300;BME280;10809;49.476;11.016;2023-02-18T15:45:19;98589.09;;;11.18;61.04
21300;BME280;10809;49.476;11.016;2023-02-18T15:47:52;98596.16;;;11.18;61.21
21300;BME280;10809;49.476;11.016;2023-02-18T15:50:37;98587.50;;;11.14;60.93
21300;BME280;10809;49.476;11.016;2023-02-18T15:53:15;98593.75;;;11.13;61.00
21300;BME280;10809;49.476;11.016;2023-02-18T15:55:53;98594.72;;;11.12;61.33